createdAt,value
2022-07-25T00:01:50.159Z,23.40
2022-07-25T00:04:18.850Z,23.29
2022-07-25T00:06:46.001Z,23.32
2022-07-25T00:09:13.571Z,23.33
2022-07-25T00:11:40.706Z,23.39
2022-07-25T00:14:08.361Z,23.38
2022-07-25T00:16:35.662Z,23.35
2022-07-25T00:19:02.646Z,23.28
2022-07-25T00:21:29.571Z,23.25
2022-07-25T00:23:56.565Z,23.41
2022-07-25T00:26:23.494Z,23.44
2022-07-25T00:28:50.453Z,23.39
2022-07-25T00:31:17.484Z,23.38
2022-07-25T00:33:44.462Z,23.27
2022-07-25T00:36:11.387Z,23.26
2022-07-25T00:38:38.384Z,23.27
2022-07-25T00:41:05.560Z,23.29
2022-07-25T00:43:32.704Z,23.32
2022-07-25T00:45:59.891Z,23.28
2022-07-25T00:48:29.907Z,23.32
2022-07-25T00:50:57.163Z,23.32
2022-07-25T00:53:25.804Z,23.30
2022-07-25T00:55:53.280Z,23.33
2022-07-25T00:58:20.477Z,23.29
2022-07-25T01:00:48.052Z,23.25
2022-07-25T01:03:16.225Z,23.17
2022-07-25T01:05:43.286Z,23.11
2022-07-25T01:08:10.771Z,23.03
2022-07-25T01:10:38.455Z,22.94
2022-07-25T01:13:06.056Z,22.96
2022-07-25T01:15:33.122Z,22.97
2022-07-25T01:18:00.054Z,22.99
2022-07-25T01:20:30.046Z,22.95
2022-07-25T01:22:57.442Z,22.80
2022-07-25T01:25:25.982Z,22.64
2022-07-25T01:27:55.872Z,22.76
2022-07-25T01:30:25.235Z,22.77
2022-07-25T01:32:52.882Z,22.75
2022-07-25T01:35:20.151Z,22.68
2022-07-25T01:37:47.358Z,22.64
2022-07-25T01:40:15.279Z,22.64
2022-07-25T01:42:43.351Z,22.67
2022-07-25T01:45:13.322Z,22.71
2022-07-25T01:47:41.308Z,22.73
2022-07-25T01:50:09.381Z,22.75
2022-07-25T01:52:39.537Z,22.67
2022-07-25T01:55:07.370Z,22.60
2022-07-25T01:57:34.288Z,22.60
2022-07-25T02:00:08.204Z,22.66
2022-07-25T02:02:35.742Z,22.67
2022-07-25T02:05:03.555Z,22.64
2022-07-25T02:07:30.573Z,22.64
2022-07-25T02:09:57.656Z,22.61
2022-07-25T02:12:24.775Z,22.64
2022-07-25T02:14:51.766Z,22.64
2022-07-25T02:17:18.887Z,22.61
2022-07-25T02:19:46.177Z,22.60
2022-07-25T02:22:13.301Z,22.60
2022-07-25T02:24:40.618Z,22.62
2022-07-25T02:27:08.448Z,22.54
2022-07-25T02:29:35.426Z,22.45
2022-07-25T02:32:02.892Z,22.49
2022-07-25T02:34:29.896Z,22.52
2022-07-25T02:36:56.895Z,22.56
2022-07-25T02:39:25.337Z,22.60
2022-07-25T02:41:52.238Z,22.62
2022-07-25T02:44:19.112Z,22.72
2022-07-25T02:46:45.980Z,22.79
2022-07-25T02:49:13.879Z,22.85
2022-07-25T02:54:11.113Z,22.82
2022-07-25T02:56:38.466Z,22.87
2022-07-25T02:59:05.452Z,22.86
2022-07-25T03:01:32.933Z,22.83
2022-07-25T03:03:59.930Z,22.82
2022-07-25T03:06:26.966Z,22.86
2022-07-25T03:08:53.903Z,22.85
2022-07-25T03:11:21.239Z,22.87
2022-07-25T03:13:48.093Z,22.85
2022-07-25T03:16:15.611Z,22.80
2022-07-25T03:18:42.502Z,22.78
2022-07-25T03:21:09.462Z,22.78
2022-07-25T03:23:36.329Z,22.70
2022-07-25T03:26:03.587Z,22.69
2022-07-25T03:28:30.505Z,22.66
2022-07-25T03:30:57.997Z,22.61
2022-07-25T03:33:24.979Z,22.61
2022-07-25T03:35:51.813Z,22.64
2022-07-25T03:38:19.010Z,22.66
2022-07-25T03:40:46.020Z,22.69
2022-07-25T03:43:13.201Z,22.71
2022-07-25T03:45:40.287Z,22.72
2022-07-25T03:48:07.426Z,22.69
2022-07-25T03:50:34.739Z,22.68
2022-07-25T03:53:01.641Z,22.67
2022-07-25T03:55:28.681Z,22.67
2022-07-25T03:57:55.579Z,22.67
2022-07-25T04:00:22.570Z,22.67
2022-07-25T04:02:49.473Z,22.69
2022-07-25T04:05:16.470Z,22.67
2022-07-25T04:07:43.459Z,22.69
2022-07-25T04:10:11.580Z,22.70
2022-07-25T04:12:38.995Z,22.68
2022-07-25T04:15:06.738Z,22.58
2022-07-25T04:17:33.674Z,22.50
2022-07-25T04:20:00.532Z,22.45
2022-07-25T04:22:27.778Z,22.49
2022-07-25T04:24:54.757Z,22.52
2022-07-25T04:27:22.182Z,22.55
2022-07-25T04:29:49.030Z,22.61
2022-07-25T04:32:20.190Z,22.69
2022-07-25T04:34:51.440Z,22.77
2022-07-25T04:37:18.361Z,22.76
2022-07-25T04:39:45.290Z,22.72
2022-07-25T04:42:12.105Z,22.64
2022-07-25T04:44:39.079Z,22.49
2022-07-25T04:47:06.198Z,22.34
2022-07-25T04:49:33.111Z,22.37
2022-07-25T04:52:00.097Z,22.41
2022-07-25T04:54:27.169Z,22.52
2022-07-25T04:56:54.008Z,22.49
2022-07-25T04:59:20.895Z,22.51
2022-07-25T05:01:47.817Z,22.48
2022-07-25T05:04:14.814Z,22.49
2022-07-25T05:06:42.000Z,22.51
2022-07-25T05:09:08.918Z,22.53
2022-07-25T05:11:35.930Z,22.54
2022-07-25T05:14:03.025Z,22.61
2022-07-25T05:16:30.214Z,22.71
2022-07-25T05:18:57.075Z,22.79
2022-07-25T05:21:24.037Z,22.90
2022-07-25T05:23:51.322Z,22.81
2022-07-25T05:26:18.265Z,22.79
2022-07-25T05:28:45.188Z,22.86
2022-07-25T05:31:12.174Z,22.96
2022-07-25T05:33:39.177Z,23.01
2022-07-25T05:36:08.717Z,23.06
2022-07-25T05:38:35.672Z,23.10
2022-07-25T05:41:04.318Z,23.13
2022-07-25T05:43:31.165Z,23.20
2022-07-25T05:46:06.214Z,23.20
2022-07-25T05:48:33.216Z,23.25
2022-07-25T05:51:00.170Z,23.23
2022-07-25T05:53:27.011Z,23.30
2022-07-25T05:55:54.649Z,23.32
2022-07-25T05:58:24.961Z,23.33
2022-07-25T06:00:55.086Z,23.40
2022-07-25T06:03:22.075Z,23.43
2022-07-25T06:05:49.176Z,23.47
2022-07-25T06:08:16.855Z,23.55
2022-07-25T06:10:43.670Z,23.63
2022-07-25T06:13:11.993Z,23.71
2022-07-25T06:15:39.359Z,23.78
2022-07-25T06:18:06.296Z,23.91
2022-07-25T06:20:33.242Z,24.00
2022-07-25T06:23:00.855Z,24.04
2022-07-25T06:25:27.724Z,24.08
2022-07-25T06:27:54.542Z,24.14
2022-07-25T06:30:21.433Z,24.22
2022-07-25T06:32:49.767Z,24.30
2022-07-25T06:35:17.808Z,24.38
2022-07-25T06:37:44.872Z,24.44
2022-07-25T06:40:12.676Z,24.53
2022-07-25T06:42:47.031Z,24.61
2022-07-25T06:45:15.544Z,24.68
2022-07-25T06:47:44.419Z,24.75
2022-07-25T06:50:22.319Z,24.84
2022-07-25T06:52:49.500Z,24.91
2022-07-25T06:55:16.770Z,24.99
2022-07-25T06:57:43.736Z,25.06
2022-07-25T07:00:14.545Z,25.19
2022-07-25T07:02:53.424Z,25.32
2022-07-25T07:05:21.953Z,25.41
2022-07-25T07:07:52.332Z,25.50
2022-07-25T07:10:21.845Z,25.62
2022-07-25T07:12:49.330Z,25.68
2022-07-25T07:15:17.170Z,25.76
2022-07-25T07:17:44.026Z,25.86
2022-07-25T07:20:11.832Z,25.99
2022-07-25T07:22:49.418Z,26.12
2022-07-25T07:25:19.670Z,26.23
2022-07-25T07:27:47.970Z,26.31
2022-07-25T07:30:16.160Z,26.49
2022-07-25T07:32:45.705Z,26.66
2022-07-25T07:35:16.521Z,26.77
2022-07-25T07:37:44.332Z,26.94
2022-07-25T07:40:17.202Z,27.09
2022-07-25T07:42:48.562Z,27.25
2022-07-25T07:45:24.376Z,27.39
2022-07-25T07:47:53.925Z,27.54
2022-07-25T07:50:27.166Z,27.68
2022-07-25T07:52:56.223Z,27.83
2022-07-25T07:55:42.079Z,27.98
2022-07-25T07:58:10.064Z,28.17
2022-07-25T08:00:39.365Z,28.39
2022-07-25T08:03:08.792Z,28.61
2022-07-25T08:05:44.369Z,28.81
2022-07-25T08:08:13.872Z,28.94
2022-07-25T08:10:45.411Z,29.12
2022-07-25T08:13:23.607Z,29.31
2022-07-25T08:15:56.018Z,29.55
2022-07-25T08:18:22.796Z,29.74
2022-07-25T08:20:51.089Z,29.92
2022-07-25T08:23:19.590Z,30.07
2022-07-25T08:25:48.218Z,30.18
2022-07-25T08:28:15.343Z,30.31
2022-07-25T08:30:43.163Z,30.53
2022-07-25T08:33:13.759Z,30.69
2022-07-25T08:35:48.983Z,30.83
2022-07-25T08:38:16.046Z,30.96
2022-07-25T08:40:42.924Z,31.19
2022-07-25T08:43:15.075Z,31.32
2022-07-25T08:45:54.951Z,31.54
2022-07-25T08:48:26.588Z,31.70
2022-07-25T08:50:57.737Z,31.87
2022-07-25T08:53:34.626Z,31.99
2022-07-25T08:56:12.239Z,32.06
2022-07-25T08:58:44.034Z,32.28
2022-07-25T09:01:13.289Z,32.41
2022-07-25T09:03:42.506Z,32.61
2022-07-25T09:06:17.635Z,32.77
2022-07-25T09:08:56.943Z,32.88
2022-07-25T09:11:32.731Z,32.90
2022-07-25T09:14:10.814Z,32.94
2022-07-25T09:16:46.000Z,33.09
2022-07-25T09:19:17.162Z,33.21
2022-07-25T09:21:59.673Z,33.30
2022-07-25T09:24:27.080Z,33.28
2022-07-25T09:26:58.084Z,33.34
2022-07-25T09:29:32.337Z,33.51
2022-07-25T09:32:01.687Z,33.71
2022-07-25T09:34:40.493Z,33.88
2022-07-25T09:37:13.639Z,34.01
2022-07-25T09:39:49.489Z,34.12
2022-07-25T09:42:23.609Z,34.22
2022-07-25T09:45:03.334Z,34.20
2022-07-25T09:47:33.014Z,34.40
2022-07-25T09:50:00.786Z,34.51
2022-07-25T09:52:27.910Z,34.58
2022-07-25T09:54:54.941Z,34.69
2022-07-25T09:57:24.112Z,34.82
2022-07-25T09:59:51.111Z,34.99
2022-07-25T10:02:48.424Z,35.11
2022-07-25T10:05:56.610Z,35.13
2022-07-25T10:08:26.583Z,35.05
2022-07-25T10:10:53.598Z,35.11
2022-07-25T10:13:34.606Z,35.09
2022-07-25T10:16:02.536Z,35.38
2022-07-25T10:18:31.496Z,35.60
2022-07-25T10:21:25.458Z,35.67
2022-07-25T10:24:05.268Z,35.80
2022-07-25T10:26:36.205Z,35.93
2022-07-25T10:29:10.549Z,36.25
2022-07-25T10:31:50.314Z,36.40
2022-07-25T10:34:33.249Z,36.44
2022-07-25T10:37:21.215Z,36.62
2022-07-25T10:39:48.687Z,36.75
2022-07-25T10:42:21.256Z,36.86
2022-07-25T10:44:54.356Z,36.94
2022-07-25T10:47:26.106Z,37.02
2022-07-25T10:50:16.836Z,37.09
2022-07-25T10:53:00.606Z,37.32
2022-07-25T10:55:29.286Z,37.42
2022-07-25T10:58:21.596Z,37.72
2022-07-25T11:00:48.550Z,37.48
2022-07-25T11:03:18.390Z,36.86
2022-07-25T11:05:51.603Z,36.40
2022-07-25T11:08:21.995Z,35.92
2022-07-25T11:10:53.190Z,35.65
2022-07-25T11:13:20.480Z,35.55
2022-07-25T11:15:48.534Z,35.80
2022-07-25T11:18:18.324Z,35.93
2022-07-25T11:20:45.149Z,35.92
2022-07-25T11:23:12.037Z,35.82
2022-07-25T11:25:42.539Z,35.90
2022-07-25T11:28:09.660Z,36.02
2022-07-25T11:30:36.701Z,36.25
2022-07-25T11:33:04.979Z,36.03
2022-07-25T11:35:33.669Z,35.72
2022-07-25T11:38:02.876Z,35.67
2022-07-25T11:40:32.576Z,36.24
2022-07-25T11:43:00.023Z,36.50
2022-07-25T11:45:33.880Z,36.22
2022-07-25T11:48:12.178Z,36.20
2022-07-25T11:50:45.207Z,36.21
2022-07-25T11:53:16.154Z,36.27
2022-07-25T11:55:44.184Z,36.43
2022-07-25T11:58:14.055Z,36.14
2022-07-25T12:00:47.261Z,35.76
2022-07-25T12:03:20.174Z,35.35
2022-07-25T12:05:49.368Z,35.13
2022-07-25T12:08:23.086Z,35.02
2022-07-25T12:10:51.390Z,34.97
2022-07-25T12:13:28.588Z,35.02
2022-07-25T12:16:00.125Z,35.33
2022-07-25T12:18:27.491Z,36.14
2022-07-25T12:20:54.460Z,36.62
2022-07-25T12:23:22.228Z,37.34
2022-07-25T12:25:49.380Z,37.64
2022-07-25T12:28:16.710Z,38.19
2022-07-25T12:30:46.013Z,38.86
2022-07-25T12:33:13.328Z,38.44
2022-07-25T12:35:42.637Z,38.59
2022-07-25T12:38:11.086Z,38.29
2022-07-25T12:40:38.817Z,38.04
2022-07-25T12:43:05.843Z,38.63
2022-07-25T12:45:33.184Z,39.01
2022-07-25T12:48:00.157Z,38.67
2022-07-25T12:50:27.199Z,37.73
2022-07-25T12:52:55.003Z,37.56
2022-07-25T12:55:22.489Z,37.39
2022-07-25T12:57:50.456Z,37.04
2022-07-25T13:00:21.555Z,36.65
2022-07-25T13:02:51.798Z,36.78
2022-07-25T13:05:20.225Z,36.80
2022-07-25T13:07:49.172Z,36.81
2022-07-25T13:10:17.465Z,36.76
2022-07-25T13:12:44.711Z,36.63
2022-07-25T13:15:12.095Z,36.51
2022-07-25T13:17:40.530Z,36.08
2022-07-25T13:20:09.203Z,35.61
2022-07-25T13:22:37.368Z,35.26
2022-07-25T13:25:05.197Z,35.04
2022-07-25T13:27:32.117Z,34.80
2022-07-25T13:29:59.423Z,34.73
2022-07-25T13:32:28.655Z,34.58
2022-07-25T13:34:55.719Z,34.37
2022-07-25T13:37:23.086Z,34.29
2022-07-25T13:39:50.245Z,34.11
2022-07-25T13:42:17.292Z,34.08
2022-07-25T13:44:44.295Z,34.27
2022-07-25T13:47:11.691Z,35.68
2022-07-25T13:49:39.115Z,36.36
2022-07-25T13:52:06.668Z,36.30
2022-07-25T13:54:33.730Z,35.90
2022-07-25T13:57:02.713Z,35.70
2022-07-25T13:59:30.180Z,35.38
2022-07-25T14:01:57.610Z,35.26
2022-07-25T14:04:28.135Z,35.33
2022-07-25T14:06:56.262Z,35.79
2022-07-25T14:09:23.910Z,35.92
2022-07-25T14:11:50.838Z,35.63
2022-07-25T14:14:17.927Z,35.53
2022-07-25T14:16:45.520Z,35.70
2022-07-25T14:19:12.911Z,35.91
2022-07-25T14:21:39.856Z,35.57
2022-07-25T14:24:07.444Z,35.11
2022-07-25T14:26:35.301Z,34.89
2022-07-25T14:29:02.701Z,35.10
2022-07-25T14:31:30.021Z,35.38
2022-07-25T14:33:56.948Z,35.24
2022-07-25T14:36:23.894Z,34.96
2022-07-25T14:38:51.155Z,34.75
2022-07-25T14:41:19.706Z,34.35
2022-07-25T14:43:46.783Z,33.74
2022-07-25T14:46:14.652Z,33.20
2022-07-25T14:48:41.987Z,32.85
2022-07-25T14:51:09.138Z,32.72
2022-07-25T14:53:36.197Z,32.59
2022-07-25T14:56:05.772Z,32.53
2022-07-25T14:58:36.134Z,32.53
2022-07-25T15:01:03.269Z,33.27
2022-07-25T15:03:30.235Z,34.07
2022-07-25T15:05:57.901Z,34.63
2022-07-25T15:08:24.964Z,34.86
2022-07-25T15:11:00.821Z,35.16
2022-07-25T15:13:31.554Z,35.16
2022-07-25T15:15:59.597Z,35.18
2022-07-25T15:18:26.647Z,35.25
2022-07-25T15:20:55.147Z,34.93
2022-07-25T15:23:24.715Z,35.06
2022-07-25T15:26:03.472Z,35.23
2022-07-25T15:28:33.596Z,35.39
2022-07-25T15:31:01.101Z,35.62
2022-07-25T15:33:28.578Z,35.40
2022-07-25T15:35:55.923Z,35.42
2022-07-25T15:38:23.204Z,35.66
2022-07-25T15:40:50.353Z,35.68
2022-07-25T15:43:17.416Z,35.66
2022-07-25T15:45:46.550Z,35.64
2022-07-25T15:48:16.311Z,35.65
2022-07-25T15:50:51.342Z,35.31
2022-07-25T15:53:18.630Z,34.78
2022-07-25T15:55:45.519Z,34.31
2022-07-25T15:58:12.809Z,34.10
2022-07-25T16:00:40.860Z,33.97
2022-07-25T16:03:08.919Z,33.95
2022-07-25T16:05:38.154Z,33.89
2022-07-25T16:08:08.280Z,33.64
2022-07-25T16:10:38.163Z,33.49
2022-07-25T16:13:05.244Z,33.45
2022-07-25T16:15:32.213Z,33.41
2022-07-25T16:18:02.635Z,33.24
2022-07-25T16:20:31.950Z,33.09
2022-07-25T16:23:00.682Z,32.94
2022-07-25T16:25:29.618Z,32.86
2022-07-25T16:28:32.007Z,32.83
2022-07-25T16:30:58.886Z,32.69
2022-07-25T16:33:26.013Z,32.60
2022-07-25T16:35:52.861Z,32.57
2022-07-25T16:38:19.979Z,32.51
2022-07-25T16:40:46.794Z,32.46
2022-07-25T16:43:13.747Z,32.41
2022-07-25T16:45:42.226Z,32.31
2022-07-25T16:48:09.351Z,32.21
2022-07-25T16:51:01.437Z,32.20
2022-07-25T16:53:28.357Z,32.13
2022-07-25T16:55:55.571Z,32.02
2022-07-25T16:58:22.474Z,31.99
2022-07-25T17:00:49.499Z,31.94
2022-07-25T17:03:16.741Z,31.96
2022-07-25T17:05:43.794Z,31.82
2022-07-25T17:08:10.757Z,31.75
2022-07-25T17:10:37.593Z,31.65
2022-07-25T17:13:04.645Z,31.59
2022-07-25T17:15:31.504Z,31.56
2022-07-25T17:17:59.366Z,31.58
2022-07-25T17:20:26.478Z,31.43
2022-07-25T17:22:53.351Z,31.37
2022-07-25T17:25:20.270Z,31.28
2022-07-25T17:27:47.213Z,31.26
2022-07-25T17:30:14.197Z,31.18
2022-07-25T17:32:41.276Z,31.12
2022-07-25T17:35:08.899Z,31.05
2022-07-25T17:37:36.139Z,30.93
2022-07-25T17:40:04.057Z,30.87
2022-07-25T17:42:31.626Z,30.82
2022-07-25T17:44:58.444Z,30.78
2022-07-25T17:47:25.711Z,30.67
2022-07-25T17:49:52.667Z,30.60
2022-07-25T17:52:19.663Z,30.51
2022-07-25T17:54:46.558Z,30.42
2022-07-25T17:57:13.643Z,30.43
2022-07-25T17:59:40.657Z,30.35
2022-07-25T18:02:07.998Z,30.21
2022-07-25T18:04:36.413Z,30.14
2022-07-25T18:07:04.681Z,30.05
2022-07-25T18:09:31.903Z,29.99
2022-07-25T18:12:01.924Z,29.90
2022-07-25T18:14:29.452Z,29.80
2022-07-25T18:16:57.365Z,29.72
2022-07-25T18:19:25.219Z,29.73
2022-07-25T18:21:53.242Z,29.68
2022-07-25T18:24:20.104Z,29.65
2022-07-25T18:26:47.080Z,29.59
2022-07-25T18:29:13.975Z,29.43
2022-07-25T18:31:40.931Z,29.41
2022-07-25T18:34:08.300Z,29.34
2022-07-25T18:36:35.492Z,29.27
2022-07-25T18:39:02.629Z,29.17
2022-07-25T18:41:30.435Z,29.17
2022-07-25T18:43:57.861Z,29.15
2022-07-25T18:46:25.284Z,29.17
2022-07-25T18:48:53.125Z,29.15
2022-07-25T18:51:21.209Z,29.09
2022-07-25T18:53:48.989Z,29.04
2022-07-25T18:56:16.891Z,28.96
2022-07-25T18:58:44.353Z,28.92
2022-07-25T19:01:12.503Z,28.85
2022-07-25T19:03:40.598Z,28.85
2022-07-25T19:06:11.250Z,28.80
2022-07-25T19:08:38.707Z,28.75
2022-07-25T19:11:05.792Z,28.75
2022-07-25T19:13:51.204Z,28.74
2022-07-25T19:16:19.322Z,28.69
2022-07-25T19:18:46.739Z,28.65
2022-07-25T19:21:13.878Z,28.60
2022-07-25T19:23:40.797Z,28.54
2022-07-25T19:26:08.129Z,28.40
2022-07-25T19:28:38.160Z,28.42
2022-07-25T19:31:05.321Z,28.39
2022-07-25T19:33:35.854Z,28.32
2022-07-25T19:36:04.483Z,28.27
2022-07-25T19:38:31.813Z,28.28
2022-07-25T19:40:59.334Z,28.24
2022-07-25T19:43:26.498Z,28.12
2022-07-25T19:45:53.849Z,28.07
2022-07-25T19:48:23.728Z,28.02
2022-07-25T19:50:52.254Z,27.95
2022-07-25T19:53:19.607Z,27.99
2022-07-25T19:55:46.542Z,27.94
2022-07-25T19:58:13.459Z,27.85
2022-07-25T20:00:41.046Z,27.85
2022-07-25T20:03:08.046Z,27.89
2022-07-25T20:05:35.284Z,27.85
2022-07-25T20:08:02.233Z,27.85
2022-07-25T20:10:29.478Z,27.81
2022-07-25T20:13:00.967Z,27.77
2022-07-25T20:15:28.838Z,27.85
2022-07-25T20:17:56.858Z,27.81
2022-07-25T20:20:24.910Z,27.77
2022-07-25T20:22:53.290Z,27.65
2022-07-25T20:25:20.238Z,27.55
2022-07-25T20:27:49.572Z,27.32
2022-07-25T20:30:17.411Z,26.92
2022-07-25T20:32:44.424Z,26.71
2022-07-25T20:35:11.541Z,26.67
2022-07-25T20:37:38.602Z,26.71
2022-07-25T20:40:06.974Z,26.85
2022-07-25T20:42:36.740Z,26.87
2022-07-25T20:45:06.235Z,26.86
2022-07-25T20:47:34.035Z,26.89
2022-07-25T20:50:01.462Z,26.95
2022-07-25T20:52:30.091Z,26.96
2022-07-25T20:54:57.014Z,26.94
2022-07-25T20:57:24.500Z,26.90
2022-07-25T20:59:51.471Z,26.73
2022-07-25T21:02:18.488Z,26.71
2022-07-25T21:04:48.295Z,26.66
2022-07-25T21:07:16.796Z,26.56
2022-07-25T21:09:44.925Z,26.40
2022-07-25T21:12:11.828Z,26.32
2022-07-25T21:14:38.671Z,26.27
2022-07-25T21:17:05.602Z,26.33
2022-07-25T21:19:32.769Z,26.39
2022-07-25T21:21:59.747Z,26.35
2022-07-25T21:24:26.746Z,26.36
2022-07-25T21:26:53.561Z,26.25
2022-07-25T21:29:20.429Z,26.19
2022-07-25T21:31:47.886Z,26.15
2022-07-25T21:34:15.797Z,26.26
2022-07-25T21:36:42.609Z,26.28
2022-07-25T21:39:09.936Z,26.30
2022-07-25T21:41:37.440Z,26.36
2022-07-25T21:44:04.510Z,26.30
2022-07-25T21:46:31.704Z,26.29
2022-07-25T21:49:17.021Z,26.32
2022-07-25T21:51:57.050Z,26.34
2022-07-25T21:54:24.978Z,26.24
2022-07-25T21:56:52.550Z,26.14
2022-07-25T21:59:19.473Z,26.17
2022-07-25T22:01:46.385Z,26.17
2022-07-25T22:04:13.301Z,26.17
2022-07-25T22:06:40.396Z,26.13
2022-07-25T22:09:07.765Z,26.16
2022-07-25T22:11:45.932Z,26.17
2022-07-25T22:14:14.277Z,26.20
2022-07-25T22:16:42.736Z,26.18
2022-07-25T22:19:10.044Z,26.10
2022-07-25T22:21:37.253Z,26.06
2022-07-25T22:24:04.576Z,25.99
2022-07-25T22:26:31.883Z,25.93
2022-07-25T22:28:59.021Z,25.93
2022-07-25T22:31:26.093Z,25.92
2022-07-25T22:33:53.159Z,25.89
2022-07-25T22:36:20.381Z,25.77
2022-07-25T22:38:50.685Z,25.75
2022-07-25T22:41:17.808Z,25.71
2022-07-25T22:43:57.257Z,25.75
2022-07-25T22:46:28.741Z,25.77
2022-07-25T22:48:56.422Z,25.77
2022-07-25T22:51:24.230Z,25.80
2022-07-25T22:53:51.565Z,25.82
2022-07-25T22:56:19.271Z,25.67
2022-07-25T22:58:49.074Z,25.61
2022-07-25T23:01:17.944Z,25.60
2022-07-25T23:03:45.618Z,25.64
2022-07-25T23:06:13.221Z,25.73
2022-07-25T23:08:40.104Z,25.79
2022-07-25T23:11:07.181Z,25.73
2022-07-25T23:13:35.335Z,25.73
2022-07-25T23:16:03.839Z,25.68
2022-07-25T23:18:32.154Z,25.68
2022-07-25T23:20:59.930Z,25.73
2022-07-25T23:23:27.315Z,25.71
2022-07-25T23:25:54.201Z,25.64
2022-07-25T23:28:21.180Z,25.66
2022-07-25T23:30:48.086Z,25.72
2022-07-25T23:33:17.480Z,25.72
2022-07-25T23:35:48.897Z,25.72
2022-07-25T23:38:15.824Z,25.74
2022-07-25T23:40:42.753Z,25.67
2022-07-25T23:43:09.593Z,25.60
2022-07-25T23:45:39.402Z,25.50
2022-07-25T23:48:07.635Z,25.55
2022-07-25T23:50:34.488Z,25.59
2022-07-25T23:53:01.400Z,25.55
2022-07-25T23:55:28.452Z,25.58
2022-07-25T23:57:55.326Z,25.59
